Time;durP1;ratioP1;P1;durP2;ratioP2;P2;SDS_P1;SDS_P2;PMS_P1;PMS_P2;Temp;Humidity;BMP_temperature;BMP_pressure;BME280_temperature;BME280_humidity;BME280_pressure;Samples;Min_cycle;Max_cycle;Signal;HPM_P1;HPM_P2
2023/01/10 00:00:20;;;;;;;;;;;5.50;99.90;;;;;;5031857;28;19936;-56
2023/01/10 00:02:46;;;;;;;;;;;5.50;99.90;;;;;;5031720;28;19921;-58
2023/01/10 00:05:13;;;;;;;;;;;5.50;99.90;;;;;;5032040;28;19925;-59
2023/01/10 00:07:40;;;;;;;;;;;5.50;99.90;;;;;;5031609;28;19979;-58
2023/01/10 00:10:08;;;;;;;;;;;5.50;99.90;;;;;;5031997;28;19936;-60
2023/01/10 00:15:19;;;;;;;;;;;5.60;99.90;;;;;;5016662;28;20352;-59
2023/01/10 00:17:46;;;;;;;;;;;5.50;99.90;;;;;;5015376;28;19922;-59
2023/01/10 00:20:13;;;;;;;;;;;5.50;99.90;;;;;;5015167;28;19988;-59
2023/01/10 00:22:39;;;;;;;;;;;5.50;99.90;;;;;;5015176;28;20021;-60
2023/01/10 00:25:07;;;;;;;;;;;5.50;99.90;;;;;;5015276;28;19925;-59
2023/01/10 00:27:35;;;;;;;;;;;5.50;99.90;;;;;;5015244;28;19983;-59
2023/01/10 00:30:12;;;;;;;;;;;5.50;99.90;;;;;;5015079;28;19927;-59
2023/01/10 00:32:39;;;;;;;;;;;5.50;99.90;;;;;;5015256;28;19975;-59
2023/01/10 00:35:08;;;;;;;;;;;5.50;99.90;;;;;;5015097;28;19975;-58
2023/01/10 00:37:34;;;;;;;;;;;5.50;99.90;;;;;;5015085;28;20020;-57
2023/01/10 00:40:01;;;;;;;;;;;5.40;99.90;;;;;;5014894;28;19971;-58
2023/01/10 00:45:13;;;;;;;;;;;5.40;99.90;;;;;;5031970;28;19994;-58
2023/01/10 00:47:39;;;;;;;;;;;5.40;99.90;;;;;;5034721;28;19968;-60
2023/01/10 00:50:07;;;;;;;;;;;5.40;99.90;;;;;;5035004;28;19921;-58
2023/01/10 00:52:33;;;;;;;;;;;5.40;99.90;;;;;;5034888;28;20299;-58
2023/01/10 00:55:00;;;;;;;;;;;5.40;99.90;;;;;;5034753;28;19921;-58
2023/01/10 00:57:26;;;;;;;;;;;5.40;99.90;;;;;;5034328;28;19921;-59
2023/01/10 00:59:54;;;;;;;;;;;5.40;99.90;;;;;;5034175;28;19925;-59
2023/01/10 01:02:21;;;;;;;;;;;5.30;99.90;;;;;;5034445;28;19921;-59
2023/01/10 01:04:47;;;;;;;;;;;5.30;99.90;;;;;;5034764;28;19921;-59
2023/01/10 01:07:13;;;;;;;;;;;5.30;99.90;;;;;;5034183;28;19921;-61
2023/01/10 01:10:25;;;;;;;;;;;5.30;99.90;;;;;;5034091;28;19921;-59
2023/01/10 01:12:30;;;;;;;;;;;5.30;99.90;;;;;;5025563;28;19951;-60
2023/01/10 01:14:58;;;;;;;;;;;5.30;99.90;;;;;;5019456;28;20388;-60
2023/01/10 01:17:24;;;;;;;;;;;5.20;99.90;;;;;;5014346;28;20343;-60
2023/01/10 01:19:51;;;;;;;;;;;5.20;99.90;;;;;;5014462;28;19922;-58
2023/01/10 01:22:17;;;;;;;;;;;5.20;99.90;;;;;;5014526;28;19967;-59
2023/01/10 01:24:44;;;;;;;;;;;5.20;99.90;;;;;;5014233;28;19929;-59
2023/01/10 01:27:10;;;;;;;;;;;5.20;99.90;;;;;;5013460;28;19925;-60
2023/01/10 01:29:36;;;;;;;;;;;5.20;99.90;;;;;;5014058;28;19921;-60
2023/01/10 01:32:04;;;;;;;;;;;5.20;99.90;;;;;;5014039;28;19921;-58
2023/01/10 01:34:31;;;;;;;;;;;5.20;99.90;;;;;;5013955;28;19975;-61
2023/01/10 01:36:57;;;;;;;;;;;5.20;99.90;;;;;;5014006;28;19921;-57
2023/01/10 01:39:24;;;;;;;;;;;5.20;99.90;;;;;;5013646;28;19921;-55
2023/01/10 01:41:57;;;;;;;;;;;5.20;99.90;;;;;;5019631;28;19925;-58
2023/01/10 01:44:24;;;;;;;;;;;5.20;99.90;;;;;;5025608;28;19964;-57
2023/01/10 01:46:54;;;;;;;;;;;5.20;99.90;;;;;;5033333;28;19967;-60
2023/01/10 01:49:23;;;;;;;;;;;5.20;99.90;;;;;;5033460;28;19925;-59
2023/01/10 01:51:53;;;;;;;;;;;5.20;99.90;;;;;;5033563;28;19929;-59
2023/01/10 01:54:19;;;;;;;;;;;5.20;99.90;;;;;;5033447;28;20366;-60
2023/01/10 01:56:49;;;;;;;;;;;5.20;99.90;;;;;;5032990;28;20009;-60
2023/01/10 01:59:19;;;;;;;;;;;5.20;99.90;;;;;;5033862;28;19921;-59
2023/01/10 02:01:47;;;;;;;;;;;5.20;99.90;;;;;;5033229;28;19920;-60
2023/01/10 02:04:16;;;;;;;;;;;5.20;99.90;;;;;;5033113;28;20380;-59
2023/01/10 02:06:45;;;;;;;;;;;5.20;99.90;;;;;;5032959;28;19974;-60
2023/01/10 02:09:16;;;;;;;;;;;5.20;99.90;;;;;;5033011;28;20392;-58
2023/01/10 02:11:42;;;;;;;;;;;5.30;99.90;;;;;;5028523;28;19925;-56
2023/01/10 02:14:10;;;;;;;;;;;5.30;99.90;;;;;;5021613;28;19967;-59
2023/01/10 02:16:36;;;;;;;;;;;5.30;99.90;;;;;;5013043;28;19928;-60
2023/01/10 02:19:04;;;;;;;;;;;5.20;99.90;;;;;;5013523;28;19932;-59
2023/01/10 02:21:40;;;;;;;;;;;5.20;99.90;;;;;;5013076;28;19929;-58
2023/01/10 02:24:21;;;;;;;;;;;5.30;99.90;;;;;;5013385;28;19922;-59
2023/01/10 02:27:06;;;;;;;;;;;5.30;99.90;;;;;;5012778;28;20376;-60
2023/01/10 02:29:47;;;;;;;;;;;5.30;99.90;;;;;;5013120;28;19930;-60
2023/01/10 02:32:20;;;;;;;;;;;5.20;99.90;;;;;;5012957;28;19921;-58
2023/01/10 02:34:53;;;;;;;;;;;5.20;99.90;;;;;;5013189;28;19921;-59
2023/01/10 02:37:24;;;;;;;;;;;5.30;99.90;;;;;;5012640;28;19929;-59
2023/01/10 02:39:54;;;;;;;;;;;5.30;99.90;;;;;;5012845;28;19976;-59
2023/01/10 02:42:26;;;;;;;;;;;5.30;99.90;;;;;;5021215;28;20339;-58
2023/01/10 02:44:57;;;;;;;;;;;5.30;99.90;;;;;;5026788;28;19975;-57
2023/01/10 02:47:26;;;;;;;;;;;5.30;99.90;;;;;;5032391;28;19925;-58
2023/01/10 02:49:52;;;;;;;;;;;5.20;99.90;;;;;;5032432;28;19925;-55
2023/01/10 02:52:21;;;;;;;;;;;5.20;99.90;;;;;;5032578;28;19928;-57
2023/01/10 02:54:48;;;;;;;;;;;5.10;99.90;;;;;;5032354;28;19921;-58
2023/01/10 02:57:30;;;;;;;;;;;5.10;99.90;;;;;;5032167;28;19921;-60
2023/01/10 03:00:14;;;;;;;;;;;5.10;99.90;;;;;;5029600;28;19921;-57
2023/01/10 03:03:00;;;;;;;;;;;5.10;99.90;;;;;;5032201;28;19982;-59
2023/01/10 03:05:30;;;;;;;;;;;5.10;99.90;;;;;;5032211;28;20280;-58
2023/01/10 03:08:01;;;;;;;;;;;5.10;99.90;;;;;;5032128;28;20441;-56
2023/01/10 03:10:30;;;;;;;;;;;5.10;99.90;;;;;;5032298;28;19921;-58
2023/01/10 03:12:58;;;;;;;;;;;5.00;99.90;;;;;;5023890;28;19921;-60
2023/01/10 03:15:27;;;;;;;;;;;5.00;99.90;;;;;;5013923;28;19922;-59
2023/01/10 03:17:56;;;;;;;;;;;5.00;99.90;;;;;;5012232;28;20442;-60
2023/01/10 03:20:24;;;;;;;;;;;5.00;99.90;;;;;;5012195;28;20428;-60
2023/01/10 03:22:51;;;;;;;;;;;5.00;99.90;;;;;;5012614;28;19926;-59
2023/01/10 03:25:21;;;;;;;;;;;5.00;99.90;;;;;;5012504;28;19968;-59
2023/01/10 03:27:51;;;;;;;;;;;5.00;99.90;;;;;;5012140;28;20399;-61
2023/01/10 03:30:21;;;;;;;;;;;5.00;99.90;;;;;;5012426;28;19967;-60
2023/01/10 03:32:48;;;;;;;;;;;5.10;99.90;;;;;;5012325;28;19921;-60
2023/01/10 03:35:15;;;;;;;;;;;5.10;99.90;;;;;;5012274;28;20380;-58
2023/01/10 03:37:45;;;;;;;;;;;5.10;99.90;;;;;;5012248;28;19921;-60
2023/01/10 03:40:16;;;;;;;;;;;5.10;99.90;;;;;;5012056;28;19967;-60
2023/01/10 03:45:33;;;;;;;;;;;5.10;99.90;;;;;;5031188;28;20390;-61
2023/01/10 03:48:01;;;;;;;;;;;5.10;99.90;;;;;;5031843;28;19975;-60
2023/01/10 03:50:28;;;;;;;;;;;5.00;99.90;;;;;;5034851;28;19975;-60
2023/01/10 03:52:57;;;;;;;;;;;5.00;99.90;;;;;;5035610;28;19921;-59
2023/01/10 03:55:25;;;;;;;;;;;5.00;99.90;;;;;;5035534;28;19925;-60
2023/01/10 03:57:52;;;;;;;;;;;5.00;99.90;;;;;;5035256;28;20380;-60
2023/01/10 04:00:19;;;;;;;;;;;5.00;99.90;;;;;;5035517;28;19925;-58
2023/01/10 04:02:46;;;;;;;;;;;5.00;99.90;;;;;;5035645;28;19995;-60
2023/01/10 04:05:12;;;;;;;;;;;4.90;99.90;;;;;;5035499;28;19921;-60
2023/01/10 04:07:39;;;;;;;;;;;4.90;99.90;;;;;;5035103;28;19990;-58
2023/01/10 04:10:08;;;;;;;;;;;4.80;99.90;;;;;;5035591;28;19947;-60
2023/01/10 04:12:34;;;;;;;;;;;4.70;99.90;;;;;;5026801;28;19967;-61
2023/01/10 04:15:01;;;;;;;;;;;4.70;99.90;;;;;;5020053;28;19961;-60
2023/01/10 04:17:28;;;;;;;;;;;4.60;99.90;;;;;;5015400;28;19921;-60
2023/01/10 04:19:55;;;;;;;;;;;4.60;99.90;;;;;;5015449;28;20426;-57
2023/01/10 04:22:21;;;;;;;;;;;4.60;99.90;;;;;;5015132;28;19968;-61
2023/01/10 04:24:50;;;;;;;;;;;4.50;99.90;;;;;;5015407;28;19925;-60
2023/01/10 04:27:18;;;;;;;;;;;4.50;99.90;;;;;;5015316;28;19968;-60
2023/01/10 04:29:44;;;;;;;;;;;4.50;99.90;;;;;;5015245;28;19921;-60
2023/01/10 04:32:11;;;;;;;;;;;4.40;99.90;;;;;;5015181;28;19925;-55
2023/01/10 04:34:38;;;;;;;;;;;4.50;99.90;;;;;;5015273;28;19983;-59
2023/01/10 04:37:04;;;;;;;;;;;4.50;99.90;;;;;;5014836;28;19926;-61
2023/01/10 04:39:31;;;;;;;;;;;4.40;99.90;;;;;;5015377;28;20344;-58
2023/01/10 04:41:57;;;;;;;;;;;4.40;99.90;;;;;;5021549;28;19924;-55
2023/01/10 04:44:25;;;;;;;;;;;4.40;99.90;;;;;;5026508;28;19921;-58
2023/01/10 04:46:52;;;;;;;;;;;4.40;99.90;;;;;;5034566;28;19928;-60
2023/01/10 04:49:18;;;;;;;;;;;4.30;99.90;;;;;;5034634;28;20376;-60
2023/01/10 04:51:45;;;;;;;;;;;4.30;99.90;;;;;;5034394;28;19975;-59
2023/01/10 04:54:11;;;;;;;;;;;4.30;99.90;;;;;;5034765;28;19921;-58
2023/01/10 04:56:38;;;;;;;;;;;4.20;99.90;;;;;;5034538;28;19983;-60
2023/01/10 04:59:06;;;;;;;;;;;4.30;99.90;;;;;;5034593;28;20004;-60
2023/01/10 05:01:37;;;;;;;;;;;4.30;99.90;;;;;;5034385;28;20004;-60
2023/01/10 05:04:04;;;;;;;;;;;4.20;99.90;;;;;;5034513;28;19925;-60
2023/01/10 05:06:31;;;;;;;;;;;4.20;99.90;;;;;;5034342;28;19925;-60
2023/01/10 05:08:57;;;;;;;;;;;4.20;99.90;;;;;;5034534;28;19967;-60
2023/01/10 05:11:24;;;;;;;;;;;4.20;99.90;;;;;;5032063;28;19924;-59
2023/01/10 05:13:51;;;;;;;;;;;4.20;99.90;;;;;;5022309;28;19928;-60
2023/01/10 05:16:17;;;;;;;;;;;4.30;99.90;;;;;;5014097;28;19921;-60
2023/01/10 05:18:45;;;;;;;;;;;4.30;99.90;;;;;;5014476;28;20438;-60
2023/01/10 05:21:12;;;;;;;;;;;4.30;99.90;;;;;;5014285;28;19925;-60
2023/01/10 05:23:39;;;;;;;;;;;4.30;99.90;;;;;;5014393;28;19921;-57
2023/01/10 05:26:06;;;;;;;;;;;4.40;99.90;;;;;;5013930;28;20404;-67
2023/01/10 05:28:33;;;;;;;;;;;4.40;99.90;;;;;;5014131;28;19921;-61
2023/01/10 05:30:59;;;;;;;;;;;4.40;99.90;;;;;;5013973;28;19925;-61
2023/01/10 05:33:26;;;;;;;;;;;4.40;99.90;;;;;;5013879;28;19928;-61
2023/01/10 05:35:54;;;;;;;;;;;4.40;99.90;;;;;;5013804;28;19921;-62
2023/01/10 05:38:20;;;;;;;;;;;4.50;99.90;;;;;;5014123;28;20277;-61
2023/01/10 05:40:47;;;;;;;;;;;4.50;99.90;;;;;;5013844;28;19975;-61
2023/01/10 05:43:13;;;;;;;;;;;4.50;99.90;;;;;;5022349;28;19921;-60
2023/01/10 05:45:40;;;;;;;;;;;4.50;99.90;;;;;;5033422;28;19995;-61
2023/01/10 05:48:06;;;;;;;;;;;4.60;99.90;;;;;;5033339;28;20405;-62
2023/01/10 05:50:33;;;;;;;;;;;4.60;99.90;;;;;;5033477;28;19921;-61
2023/01/10 05:53:04;;;;;;;;;;;4.60;99.90;;;;;;5033421;28;19921;-61
2023/01/10 05:55:31;;;;;;;;;;;4.60;99.90;;;;;;5033359;28;20407;-61
2023/01/10 05:57:57;;;;;;;;;;;4.50;99.90;;;;;;5033012;28;19921;-60
2023/01/10 06:00:24;;;;;;;;;;;4.50;99.90;;;;;;5033130;28;19952;-61
2023/01/10 06:02:51;;;;;;;;;;;4.50;99.90;;;;;;5033274;28;19952;-61
2023/01/10 06:05:17;;;;;;;;;;;4.50;99.90;;;;;;5033438;28;19921;-62
2023/01/10 06:07:44;;;;;;;;;;;4.50;99.90;;;;;;5032768;28;19952;-61
2023/01/10 06:10:12;;;;;;;;;;;4.50;99.90;;;;;;5033085;28;19925;-61
2023/01/10 06:12:38;;;;;;;;;;;4.40;99.90;;;;;;5024048;28;20400;-61
2023/01/10 06:15:06;;;;;;;;;;;4.40;99.90;;;;;;5017128;28;19932;-60
2023/01/10 06:17:32;;;;;;;;;;;4.40;99.90;;;;;;5013255;28;19921;-61
2023/01/10 06:19:59;;;;;;;;;;;4.30;99.90;;;;;;5013303;28;19968;-61
2023/01/10 06:22:26;;;;;;;;;;;4.30;99.90;;;;;;5013187;28;19933;-60
2023/01/10 06:24:53;;;;;;;;;;;4.20;99.90;;;;;;5013120;28;19956;-61
2023/01/10 06:27:21;;;;;;;;;;;4.20;99.90;;;;;;5012819;28;19928;-61
2023/01/10 06:29:48;;;;;;;;;;;4.20;99.90;;;;;;5012837;28;19925;-61
2023/01/10 06:32:14;;;;;;;;;;;4.20;99.90;;;;;;5012991;28;20442;-61
2023/01/10 06:34:41;;;;;;;;;;;4.20;99.90;;;;;;5012977;28;19928;-59
2023/01/10 06:37:07;;;;;;;;;;;4.20;99.90;;;;;;5012878;28;19975;-60
2023/01/10 06:39:34;;;;;;;;;;;4.30;99.90;;;;;;5012429;28;20411;-61
2023/01/10 06:42:00;;;;;;;;;;;4.40;99.90;;;;;;5019631;28;19925;-60
2023/01/10 06:44:28;;;;;;;;;;;4.40;99.90;;;;;;5024399;28;19921;-60
2023/01/10 06:46:55;;;;;;;;;;;4.40;99.90;;;;;;5032579;28;20334;-60
2023/01/10 06:49:21;;;;;;;;;;;4.40;99.90;;;;;;5032410;28;20367;-60
2023/01/10 06:51:48;;;;;;;;;;;4.50;99.90;;;;;;5032526;28;19967;-60
2023/01/10 06:54:15;;;;;;;;;;;4.40;99.90;;;;;;5032384;28;19921;-63
2023/01/10 06:56:42;;;;;;;;;;;4.50;99.90;;;;;;5032071;28;20360;-60
2023/01/10 06:59:09;;;;;;;;;;;4.50;99.90;;;;;;5032552;28;19975;-60
2023/01/10 07:01:37;;;;;;;;;;;4.50;99.90;;;;;;5032339;28;19925;-61
2023/01/10 07:04:03;;;;;;;;;;;4.50;99.90;;;;;;5032362;28;19999;-59
2023/01/10 07:06:30;;;;;;;;;;;4.50;99.90;;;;;;5032245;28;19928;-60
2023/01/10 07:08:57;;;;;;;;;;;4.50;99.90;;;;;;5032263;28;19975;-60
2023/01/10 07:11:23;;;;;;;;;;;4.60;99.90;;;;;;5030066;28;19921;-60
2023/01/10 07:13:52;;;;;;;;;;;4.60;99.90;;;;;;5020751;28;20295;-60
2023/01/10 07:16:19;;;;;;;;;;;4.60;99.90;;;;;;5012343;28;20012;-61
2023/01/10 07:18:47;;;;;;;;;;;4.60;99.90;;;;;;5012682;28;19953;-58
2023/01/10 07:21:15;;;;;;;;;;;4.60;99.90;;;;;;5012687;28;20334;-60
2023/01/10 07:23:42;;;;;;;;;;;4.60;99.90;;;;;;5012750;28;19968;-60
2023/01/10 07:26:10;;;;;;;;;;;4.70;99.90;;;;;;5016558;28;19922;-58
2023/01/10 07:28:37;;;;;;;;;;;4.70;99.90;;;;;;5016879;28;19921;-60
2023/01/10 07:31:05;;;;;;;;;;;4.70;99.90;;;;;;5016456;28;19925;-60
2023/01/10 07:33:32;;;;;;;;;;;4.70;99.90;;;;;;5016207;28;20041;-60
2023/01/10 07:36:01;;;;;;;;;;;4.70;99.90;;;;;;5016021;28;19921;-60
2023/01/10 07:38:28;;;;;;;;;;;4.80;99.90;;;;;;5016086;28;19980;-61
2023/01/10 07:40:54;;;;;;;;;;;4.80;99.90;;;;;;5016146;28;19921;-60
2023/01/10 07:43:21;;;;;;;;;;;4.80;99.90;;;;;;5025578;28;20397;-61
2023/01/10 07:45:47;;;;;;;;;;;4.80;99.90;;;;;;5035589;28;20364;-60
2023/01/10 07:48:14;;;;;;;;;;;4.80;99.90;;;;;;5035649;28;19921;-60
2023/01/10 07:50:41;;;;;;;;;;;4.80;99.90;;;;;;5035929;28;19921;-58
2023/01/10 07:53:09;;;;;;;;;;;4.80;99.90;;;;;;5036124;28;19928;-61
2023/01/10 07:55:37;;;;;;;;;;;4.80;99.90;;;;;;5035718;28;19925;-60
2023/01/10 07:58:05;;;;;;;;;;;4.80;99.90;;;;;;5035206;28;20376;-60
2023/01/10 08:00:32;;;;;;;;;;;4.90;99.90;;;;;;5035468;28;19928;-60
2023/01/10 08:02:58;;;;;;;;;;;4.90;99.90;;;;;;5035380;28;19928;-60
2023/01/10 08:05:25;;;;;;;;;;;4.90;99.90;;;;;;5035265;28;19920;-61
2023/01/10 08:07:52;;;;;;;;;;;4.90;99.90;;;;;;5035365;28;19925;-61
2023/01/10 08:10:20;;;;;;;;;;;4.90;99.90;;;;;;5035375;28;19921;-60
2023/01/10 08:12:49;;;;;;;;;;;4.90;99.90;;;;;;5026947;28;19929;-58
2023/01/10 08:15:15;;;;;;;;;;;4.90;99.90;;;;;;5017876;28;20587;-61
2023/01/10 08:17:43;;;;;;;;;;;4.90;99.90;;;;;;5015201;28;19929;-61
2023/01/10 08:20:10;;;;;;;;;;;5.00;99.90;;;;;;5015089;28;19922;-60
2023/01/10 08:22:37;;;;;;;;;;;5.00;99.90;;;;;;5014989;28;19921;-59
2023/01/10 08:25:03;;;;;;;;;;;5.00;99.90;;;;;;5015435;28;19922;-60
2023/01/10 08:27:31;;;;;;;;;;;5.00;99.90;;;;;;5014984;28;20439;-60
2023/01/10 08:29:58;;;;;;;;;;;5.00;99.90;;;;;;5015176;28;19975;-59
2023/01/10 08:32:25;;;;;;;;;;;5.00;99.90;;;;;;5014934;28;19972;-60
2023/01/10 08:34:51;;;;;;;;;;;5.00;99.90;;;;;;5014714;28;19976;-60
2023/01/10 08:37:18;;;;;;;;;;;5.00;99.90;;;;;;5015068;28;19976;-59
2023/01/10 08:39:44;;;;;;;;;;;5.00;99.90;;;;;;5015059;28;19921;-60
2023/01/10 08:42:11;;;;;;;;;;;5.00;99.90;;;;;;5023048;28;19990;-61
2023/01/10 08:44:39;;;;;;;;;;;5.10;99.90;;;;;;5026610;28;19921;-60
2023/01/10 08:47:05;;;;;;;;;;;5.10;99.90;;;;;;5034387;28;19975;-60
2023/01/10 08:49:32;;;;;;;;;;;5.10;99.90;;;;;;5034891;28;19925;-60
2023/01/10 08:51:58;;;;;;;;;;;5.10;99.90;;;;;;5034546;28;19921;-60
2023/01/10 08:54:25;;;;;;;;;;;5.10;99.90;;;;;;5034449;28;20299;-60
2023/01/10 08:56:51;;;;;;;;;;;5.10;99.90;;;;;;5034420;28;19921;-60
2023/01/10 08:59:18;;;;;;;;;;;5.10;99.90;;;;;;5034577;28;19967;-61
2023/01/10 09:01:46;;;;;;;;;;;5.00;99.90;;;;;;5034296;28;20328;-60
2023/01/10 09:04:12;;;;;;;;;;;5.00;99.90;;;;;;5034552;28;19921;-61
2023/01/10 09:06:39;;;;;;;;;;;5.00;99.90;;;;;;5033914;28;19928;-60
2023/01/10 09:09:05;;;;;;;;;;;4.90;99.90;;;;;;5034348;28;19921;-60
2023/01/10 09:11:32;;;;;;;;;;;4.90;99.90;;;;;;5030998;28;19921;-61
2023/01/10 09:13:58;;;;;;;;;;;4.90;99.90;;;;;;5022402;28;20380;-61
2023/01/10 09:16:25;;;;;;;;;;;5.00;99.90;;;;;;5013933;28;20578;-60
2023/01/10 09:18:54;;;;;;;;;;;5.00;99.90;;;;;;5014510;28;19922;-60
2023/01/10 09:21:21;;;;;;;;;;;5.00;99.90;;;;;;5014040;28;20376;-60
2023/01/10 09:23:47;;;;;;;;;;;5.00;99.90;;;;;;5014205;28;19933;-61
2023/01/10 09:26:14;;;;;;;;;;;5.00;99.90;;;;;;5013942;28;19921;-60
2023/01/10 09:28:40;;;;;;;;;;;5.00;99.90;;;;;;5013621;28;19925;-60
2023/01/10 09:31:07;;;;;;;;;;;5.10;99.90;;;;;;5014025;28;19975;-60
2023/01/10 09:33:35;;;;;;;;;;;5.10;99.90;;;;;;5013895;28;19927;-60
2023/01/10 09:36:03;;;;;;;;;;;5.20;99.90;;;;;;5013896;28;19976;-61
2023/01/10 09:38:29;;;;;;;;;;;5.20;99.90;;;;;;5013809;28;20439;-61
2023/01/10 09:41:01;;;;;;;;;;;5.20;99.90;;;;;;5013937;28;19967;-60
2023/01/10 09:43:33;;;;;;;;;;;5.30;99.90;;;;;;5024273;28;20419;-60
2023/01/10 09:46:04;;;;;;;;;;;5.30;99.90;;;;;;5033187;28;19921;-59
2023/01/10 09:48:36;;;;;;;;;;;5.30;99.90;;;;;;5033182;28;19921;-61
2023/01/10 09:51:14;;;;;;;;;;;5.30;99.90;;;;;;5033607;28;19967;-60
2023/01/10 09:53:42;;;;;;;;;;;5.40;99.90;;;;;;5033219;28;20303;-60
2023/01/10 09:56:09;;;;;;;;;;;5.40;99.90;;;;;;5033255;28;19925;-57
2023/01/10 09:58:37;;;;;;;;;;;5.40;99.90;;;;;;5033493;28;19921;-61
2023/01/10 10:01:05;;;;;;;;;;;5.40;99.90;;;;;;5033368;28;20016;-61
2023/01/10 10:03:34;;;;;;;;;;;5.40;99.90;;;;;;5033225;28;19967;-61
2023/01/10 10:06:02;;;;;;;;;;;5.40;99.90;;;;;;5033152;28;19963;-60
2023/01/10 10:08:30;;;;;;;;;;;5.40;99.90;;;;;;5033030;28;19987;-61
2023/01/10 10:11:00;;;;;;;;;;;5.40;99.90;;;;;;5033048;28;19921;-61
2023/01/10 10:13:35;;;;;;;;;;;5.40;99.90;;;;;;5022453;28;19925;-61
2023/01/10 10:16:07;;;;;;;;;;;5.50;99.90;;;;;;5013155;28;19926;-61
2023/01/10 10:18:38;;;;;;;;;;;5.60;99.90;;;;;;5013217;28;19921;-61
2023/01/10 10:21:08;;;;;;;;;;;5.60;99.90;;;;;;5013464;28;19921;-61
2023/01/10 10:23:52;;;;;;;;;;;5.60;99.90;;;;;;5013103;28;19967;-61
2023/01/10 10:26:22;;;;;;;;;;;5.70;99.90;;;;;;5013111;28;19925;-61
2023/01/10 10:28:54;;;;;;;;;;;5.80;99.90;;;;;;5012965;28;19932;-61
2023/01/10 10:31:23;;;;;;;;;;;5.90;99.90;;;;;;5012862;28;19968;-61
2023/01/10 10:33:54;;;;;;;;;;;6.00;99.90;;;;;;5012969;28;19952;-61
2023/01/10 10:36:22;;;;;;;;;;;6.00;99.90;;;;;;5012889;28;19922;-61
2023/01/10 10:38:51;;;;;;;;;;;6.10;99.90;;;;;;5012914;28;20016;-62
2023/01/10 10:41:22;;;;;;;;;;;6.10;99.90;;;;;;5013798;28;20449;-61
2023/01/10 10:43:48;;;;;;;;;;;6.10;99.90;;;;;;5024371;28;19929;-61
2023/01/10 10:46:17;;;;;;;;;;;6.20;99.90;;;;;;5032482;28;19928;-61
2023/01/10 10:48:49;;;;;;;;;;;6.20;99.90;;;;;;5027921;28;20296;-59
2023/01/10 10:51:18;;;;;;;;;;;6.20;99.90;;;;;;5012843;28;19921;-61
2023/01/10 10:53:46;;;;;;;;;;;6.10;99.90;;;;;;5012710;28;19925;-61
2023/01/10 10:56:15;;;;;;;;;;;6.10;99.90;;;;;;5012345;28;19925;-61
2023/01/10 10:58:43;;;;;;;;;;;6.10;99.90;;;;;;5012605;28;19956;-61
2023/01/10 11:01:11;;;;;;;;;;;6.10;99.90;;;;;;5012764;28;19921;-61
2023/01/10 11:03:39;;;;;;;;;;;6.10;99.90;;;;;;5012535;28;19921;-59
2023/01/10 11:06:08;;;;;;;;;;;6.10;99.90;;;;;;5012348;28;20332;-61
2023/01/10 11:08:35;;;;;;;;;;;6.20;99.90;;;;;;5012696;28;19925;-61
2023/01/10 11:11:03;;;;;;;;;;;6.20;99.90;;;;;;5012246;28;19928;-61
2023/01/10 11:13:38;;;;;;;;;;;6.20;99.90;;;;;;5023464;28;20335;-61
2023/01/10 11:16:06;;;;;;;;;;;6.30;99.90;;;;;;5032122;28;19925;-61
2023/01/10 11:18:32;;;;;;;;;;;6.30;99.90;;;;;;5032207;28;19928;-60
2023/01/10 11:21:00;;;;;;;;;;;6.40;99.90;;;;;;5031973;28;19921;-61
2023/01/10 11:23:37;;;;;;;;;;;6.30;99.90;;;;;;5013048;28;19929;-61
2023/01/10 11:26:04;;;;;;;;;;;6.40;99.90;;;;;;5012294;28;19968;-61
2023/01/10 11:28:31;;;;;;;;;;;6.40;99.90;;;;;;5012299;28;19921;-60
2023/01/10 11:31:00;;;;;;;;;;;6.40;99.90;;;;;;5012524;28;19921;-63
2023/01/10 11:33:27;;;;;;;;;;;6.40;99.90;;;;;;5012490;28;19923;-60
2023/01/10 11:35:59;;;;;;;;;;;6.50;99.90;;;;;;5011885;28;19921;-60
2023/01/10 11:38:28;;;;;;;;;;;6.50;99.90;;;;;;5012091;28;19921;-61
2023/01/10 11:40:56;;;;;;;;;;;6.50;99.90;;;;;;5012371;28;19929;-60
2023/01/10 11:43:28;;;;;;;;;;;6.50;99.90;;;;;;5022161;28;19921;-61
2023/01/10 11:45:56;;;;;;;;;;;6.50;99.90;;;;;;5031749;28;19921;-61
2023/01/10 11:48:24;;;;;;;;;;;6.60;99.90;;;;;;5032136;28;19921;-61
2023/01/10 11:50:53;;;;;;;;;;;6.60;99.90;;;;;;5031915;28;19921;-61
2023/01/10 11:53:30;;;;;;;;;;;6.60;99.90;;;;;;5032104;28;19921;-61
2023/01/10 11:55:57;;;;;;;;;;;6.50;99.90;;;;;;5025126;28;19952;-61
2023/01/10 11:58:29;;;;;;;;;;;6.50;99.90;;;;;;5011880;28;19925;-61
2023/01/10 12:00:55;;;;;;;;;;;6.60;99.90;;;;;;5011753;28;19921;-61
2023/01/10 12:03:27;;;;;;;;;;;6.60;99.90;;;;;;5012174;28;19921;-61
2023/01/10 12:05:54;;;;;;;;;;;6.60;99.90;;;;;;5011481;28;20012;-61
2023/01/10 12:08:25;;;;;;;;;;;6.60;99.90;;;;;;5012111;28;19922;-61
2023/01/10 12:10:57;;;;;;;;;;;6.60;99.90;;;;;;5013536;28;19967;-61
2023/01/10 12:13:23;;;;;;;;;;;6.60;99.90;;;;;;5023582;28;19991;-67
2023/01/10 12:15:50;;;;;;;;;;;6.60;99.90;;;;;;5020314;28;19921;-62
2023/01/10 12:18:18;;;;;;;;;;;6.60;99.90;;;;;;5024168;28;19925;-61
2023/01/10 12:20:47;;;;;;;;;;;6.70;99.90;;;;;;5021181;28;20377;-62
2023/01/10 12:23:17;;;;;;;;;;;6.70;99.90;;;;;;5015509;28;20407;-62
2023/01/10 12:25:44;;;;;;;;;;;6.70;99.90;;;;;;5026288;28;19921;-61
2023/01/10 12:28:16;;;;;;;;;;;6.70;98.40;;;;;;5030360;28;19925;-61
2023/01/10 12:30:48;;;;;;;;;;;6.70;94.60;;;;;;5022607;28;19922;-60
2023/01/10 12:33:16;;;;;;;;;;;6.80;89.30;;;;;;5022998;28;19997;-60
2023/01/10 12:35:46;;;;;;;;;;;6.80;90.50;;;;;;5022206;28;19921;-62
2023/01/10 12:38:19;;;;;;;;;;;6.80;85.30;;;;;;5014548;28;19921;-57
2023/01/10 12:40:49;;;;;;;;;;;6.80;82.00;;;;;;5016076;28;20020;-57
2023/01/10 12:46:06;;;;;;;;;;;6.80;88.40;;;;;;5013879;28;19924;-53
2023/01/10 12:48:38;;;;;;;;;;;6.90;81.30;;;;;;5014079;28;19979;-61
2023/01/10 12:51:06;;;;;;;;;;;6.90;85.30;;;;;;5014847;28;19921;-60
2023/01/10 12:53:36;;;;;;;;;;;6.90;84.80;;;;;;5013909;28;20419;-61
2023/01/10 12:56:06;;;;;;;;;;;7.00;87.50;;;;;;5013298;28;20261;-59
2023/01/10 12:58:39;;;;;;;;;;;7.00;65.90;;;;;;5013908;28;20420;-55
2023/01/10 13:01:06;;;;;;;;;;;7.00;62.50;;;;;;5013946;28;20296;-58
2023/01/10 13:03:34;;;;;;;;;;;7.00;58.60;;;;;;5014111;28;19925;-57
2023/01/10 13:06:00;;;;;;;;;;;7.10;48.30;;;;;;5013493;28;19921;-55
2023/01/10 13:08:29;;;;;;;;;;;7.10;59.40;;;;;;5014161;28;19922;-58
2023/01/10 13:10:58;;;;;;;;;;;7.10;56.80;;;;;;5013763;28;20412;-55
2023/01/10 13:13:29;;;;;;;;;;;7.10;42.60;;;;;;5024176;28;20313;-56
2023/01/10 13:15:59;;;;;;;;;;;7.10;44.60;;;;;;5033501;28;19955;-53
2023/01/10 13:18:27;;;;;;;;;;;7.10;28.70;;;;;;5033187;28;19921;-58
2023/01/10 13:21:07;;;;;;;;;;;7.20;20.70;;;;;;5033438;28;20273;-58
2023/01/10 13:23:34;;;;;;;;;;;7.20;23.20;;;;;;5033203;28;19921;-58
2023/01/10 13:26:04;;;;;;;;;;;7.20;8.00;;;;;;5033453;28;19921;-58
2023/01/10 13:28:32;;;;;;;;;;;7.20;6.00;;;;;;5032960;28;19921;-57
2023/01/10 13:31:00;;;;;;;;;;;7.20;7.90;;;;;;5033113;28;19925;-58
2023/01/10 13:33:28;;;;;;;;;;;7.20;1.30;;;;;;5033265;28;20019;-54
2023/01/10 13:35:56;;;;;;;;;;;7.20;1.00;;;;;;5033246;28;19921;-61
2023/01/10 13:38:26;;;;;;;;;;;7.20;1.00;;;;;;5033510;28;20285;-59
2023/01/10 13:40:57;;;;;;;;;;;7.20;1.00;;;;;;5031735;28;19921;-61
2023/01/10 13:43:32;;;;;;;;;;;7.20;1.00;;;;;;5022443;28;20356;-59
2023/01/10 13:46:22;;;;;;;;;;;7.20;1.00;;;;;;5011803;28;20016;-61
2023/01/10 13:49:04;;;;;;;;;;;7.20;1.00;;;;;;5012958;28;20369;-57
2023/01/10 13:51:31;;;;;;;;;;;7.20;1.00;;;;;;5012150;28;20269;-61
2023/01/10 13:53:58;;;;;;;;;;;7.20;1.00;;;;;;5012726;28;20348;-61
2023/01/10 13:56:29;;;;;;;;;;;7.20;1.00;;;;;;5015616;28;19921;-61
2023/01/10 14:04:27;;;;;;;;;;;7.10;1.00;;;;;;5013302;28;20466;-60
2023/01/10 14:06:54;;;;;;;;;;;7.10;1.00;;;;;;5012218;28;19925;-58
2023/01/10 14:09:43;;;;;;;;;;;7.10;1.00;;;;;;5012450;28;19929;-61
2023/01/10 14:12:18;;;;;;;;;;;7.10;1.00;;;;;;5007322;28;20008;-60
2023/01/10 14:14:52;;;;;;;;;;;7.10;1.00;;;;;;5012631;28;19968;-62
2023/01/10 14:17:23;;;;;;;;;;;7.00;1.00;;;;;;5012011;28;19980;-63
2023/01/10 14:19:58;;;;;;;;;;;7.00;1.00;;;;;;5011455;28;19921;-60
2023/01/10 14:22:26;;;;;;;;;;;7.00;1.00;;;;;;5011895;28;19921;-61
2023/01/10 14:24:54;;;;;;;;;;;7.00;1.00;;;;;;5011401;28;19957;-61
2023/01/10 14:27:21;;;;;;;;;;;7.00;1.00;;;;;;5012452;28;19921;-61
2023/01/10 14:29:49;;;;;;;;;;;6.90;1.00;;;;;;5012476;28;20138;-61
2023/01/10 14:32:19;;;;;;;;;;;6.90;1.00;;;;;;5012353;28;19921;-58
2023/01/10 14:34:48;;;;;;;;;;;6.90;1.00;;;;;;5011574;28;19921;-55
2023/01/10 14:37:21;;;;;;;;;;;6.90;1.00;;;;;;5011998;28;19925;-60
2023/01/10 14:39:49;;;;;;;;;;;6.90;1.00;;;;;;5009391;28;19932;-59
2023/01/10 14:42:17;;;;;;;;;;;6.90;1.00;;;;;;5021417;28;19925;-62
2023/01/10 14:44:44;;;;;;;;;;;6.80;1.00;;;;;;5020156;28;19921;-62
2023/01/10 14:47:26;;;;;;;;;;;6.80;1.00;;;;;;5019790;28;19927;-63
2023/01/10 14:49:54;;;;;;;;;;;6.80;1.00;;;;;;5017808;28;19960;-62
2023/01/10 14:52:22;;;;;;;;;;;6.80;1.00;;;;;;5012007;28;19921;-62
2023/01/10 14:54:54;;;;;;;;;;;6.80;1.00;;;;;;5011500;28;20323;-62